Aérodrome :
LOGIN :

S'inscrire | Disclaimer

   EN    FR    IT 

 










Légende :    VFR   VFR Marginal   IFR   IFR Intensif   IFR Très Intensif
Visi : 
Plafond : 
>= 8 km
>= 3000ft
5 à 8 km
1000 à 3000 ft
1500m à 5 km
500 à 1000 ft
800 à 1500m
200 à 500 ft
< 800m
< 200 ft
Symboles :   Orages  Brouillard  Fortes neiges  Fortes précipitations  Vent > 20 kt
SIGMETs :   Divers  Orages  Givrage  Turbulence  Onde Orograph.  Cendres Volcan.






- Altitude de l'aérodrome : 157 ft
- Code IATA : LIL


LFQQ - Lille Lesquin

DERNIER METAR :
  • 161900Z AUTO 18014KT 9999 -DZ BKN009/// OVC015/// ///TCU 14/13 Q1005 TEMPO 2000 RA OVC004

METARs EXPIRÉS :
  • 161830Z AUTO 18014KT 9999 -RA BKN010 OVC016 14/13 Q1005 TEMPO 2000 RA OVC004
  • 161800Z AUTO 18014KT 9999 -DZ OVC010/// ///TCU 15/13 Q1006 TEMPO 2000 RA OVC004
  • 161730Z AUTO 18015KT 9999 OVC009 14/13 Q1006 TEMPO 4000 RA
  • 161700Z AUTO 18014KT 9999 -RA BKN009/// OVC013/// ///TCU 14/13 Q1005 TEMPO 4000 RA BKN009 BKN014 OVC020
  • 161630Z AUTO 18015KT 5000 -RA BR BKN008/// OVC012/// ///TCU 14/13 Q1005 TEMPO RA BKN009 BKN014 OVC020
  • 161600Z AUTO 18016KT 9000 -RA BKN008 OVC013 15/14 Q1005 BECMG BKN014 OVC020

TAF TAF LFQQ
Valide du 16 à 18h jusqu'au 18 à 00h UTC


161700Z 1618/1724 21015KT 6000 BKN008 OVC012
TEMPO 1618/1623 2000 RA OVC004
FM170000 27010KT 9999 SCT012 BKN025
BECMG 1701/1703 18008KT
TEMPO 1708/1710 BKN008
TEMPO 1710/1713 BKN012
PROB30
TEMPO 1718/1722 4000 SHRA BKN008 BKN020TCU
ATIS : +33 3 20 16 19 54



MET'MAP, la Météo Aéronautique d'un coup d'oeil ! - Copyright ORBIFLY Décembre 2007 - Disclaimer

ORBIFLY MET'MAP TEAM :

Programmation & Développement : Alexandra Zaïnal
Conception & Développement : Baudouin d'Aumeries
Co-Programmation & Développement : Marc-Olivier Méhu
Soutien technique & logistique : Manuel Goepfert

Contact : metmap@orbifly.com




SOURCES & CREDITS :

   NOAA